Annsville, New York
Current Conditions -  °F | °C
As of 2:53 PM on Friday 19 Dec 2014 (Local Time) from KRME Reporting Station
Overcast Overcast  
Wind Chill: 16°   Ceiling: 1900
Heat Index: 26°   Visibility: 10mi
Dew Point: 20°   Wind: 12mph
Humidity: 78%   Direction: 280°W
Pressure: 30.15"   Gusts: NA
Location:  43.3949°N, 75.6118°W
Report Text: KRME 191953Z 28010KT 10SM OVC019 M03/M07 A3015 RMK AO2 SLP213 T10331067
Loading
Personal Weather Stations






























Interactive Weather Map New forecast layout! Learn more

10-Day Weather Forecast

Advertisements
Track Severe Weather on mobile